createdAt,value
2022-09-07T00:01:12.646Z,1.57
2022-09-07T00:03:41.151Z,1.50
2022-09-07T00:06:12.356Z,1.70
2022-09-07T00:08:41.395Z,1.67
2022-09-07T00:11:13.177Z,1.50
2022-09-07T00:13:43.709Z,1.53
2022-09-07T00:16:17.073Z,1.70
2022-09-07T00:18:46.470Z,1.67
2022-09-07T00:21:16.827Z,1.27
2022-09-07T00:23:46.227Z,2.20
2022-09-07T00:26:16.239Z,1.90
2022-09-07T00:28:45.338Z,2.53
2022-09-07T00:31:17.479Z,1.47
2022-09-07T00:33:46.065Z,1.60
2022-09-07T00:36:14.233Z,1.90
2022-09-07T00:38:42.723Z,2.40
2022-09-07T00:41:11.818Z,1.77
2022-09-07T00:43:42.434Z,1.80
2022-09-07T00:46:17.313Z,2.00
2022-09-07T00:48:50.939Z,1.43
2022-09-07T00:51:22.802Z,1.93
2022-09-07T00:53:55.806Z,2.63
2022-09-07T00:56:26.476Z,1.90
2022-09-07T00:58:55.261Z,1.87
2022-09-07T01:01:26.292Z,1.70
2022-09-07T01:03:56.051Z,1.20
2022-09-07T01:06:27.947Z,1.40
2022-09-07T01:08:58.535Z,1.73
2022-09-07T01:11:27.086Z,1.77
2022-09-07T01:13:55.518Z,1.33
2022-09-07T01:16:38.147Z,1.47
2022-09-07T01:19:19.575Z,2.00
2022-09-07T01:21:58.501Z,1.20
2022-09-07T01:24:43.194Z,1.50
2022-09-07T01:28:04.147Z,1.90
2022-09-07T01:30:34.056Z,1.30
2022-09-07T01:33:14.249Z,1.53
2022-09-07T01:35:46.699Z,1.60
2022-09-07T01:38:21.745Z,1.60
2022-09-07T01:40:54.421Z,1.60
2022-09-07T01:43:30.417Z,1.30
2022-09-07T01:46:00.146Z,1.33
2022-09-07T01:48:29.177Z,1.50
2022-09-07T01:51:02.102Z,1.40
2022-09-07T01:53:35.568Z,1.77
2022-09-07T01:56:06.984Z,1.40
2022-09-07T01:58:39.927Z,1.63
2022-09-07T02:01:11.380Z,1.60
2022-09-07T02:03:44.260Z,1.43
2022-09-07T02:06:16.398Z,1.63
2022-09-07T02:08:48.282Z,1.50
2022-09-07T02:11:20.792Z,1.60
2022-09-07T02:13:54.028Z,1.40
2022-09-07T02:16:24.103Z,1.70
2022-09-07T02:18:55.356Z,1.20
2022-09-07T02:21:28.638Z,1.63
2022-09-07T02:24:00.969Z,1.40
2022-09-07T02:26:30.054Z,2.10
2022-09-07T02:29:00.461Z,1.90
2022-09-07T02:31:28.820Z,1.77
2022-09-07T02:33:57.400Z,2.20
2022-09-07T02:36:28.338Z,2.50
2022-09-07T02:38:56.921Z,2.30
2022-09-07T02:41:31.916Z,2.40
2022-09-07T02:44:03.027Z,2.30
2022-09-07T02:46:39.018Z,2.63
2022-09-07T02:49:12.390Z,2.40
2022-09-07T02:51:46.889Z,2.53
2022-09-07T02:54:26.008Z,2.53
2022-09-07T02:57:03.036Z,2.67
2022-09-07T02:59:42.130Z,2.07
2022-09-07T03:02:17.716Z,2.00
2022-09-07T03:04:50.350Z,2.20
2022-09-07T03:07:21.211Z,2.03
2022-09-07T03:09:51.258Z,2.07
2022-09-07T03:12:20.281Z,1.67
2022-09-07T03:14:50.022Z,2.10
2022-09-07T03:17:18.767Z,2.20
2022-09-07T03:19:47.070Z,1.70
2022-09-07T03:22:15.190Z,2.03
2022-09-07T03:24:43.703Z,2.17
2022-09-07T03:27:11.850Z,2.07
2022-09-07T03:29:42.138Z,2.20
2022-09-07T03:32:11.885Z,2.17
2022-09-07T03:34:40.741Z,2.70
2022-09-07T03:37:09.340Z,2.40
2022-09-07T03:39:37.845Z,2.30
2022-09-07T03:42:06.443Z,3.20
2022-09-07T03:44:34.926Z,2.10
2022-09-07T03:47:03.783Z,2.60
2022-09-07T03:49:33.503Z,2.63
2022-09-07T03:52:02.534Z,2.70
2022-09-07T03:54:31.152Z,3.33
2022-09-07T03:56:59.457Z,2.17
2022-09-07T03:59:28.408Z,2.03
2022-09-07T04:01:56.813Z,2.07
2022-09-07T04:04:25.258Z,1.87
2022-09-07T04:06:55.207Z,1.67
2022-09-07T04:09:23.551Z,2.03
2022-09-07T04:11:52.152Z,2.17
2022-09-07T04:14:20.632Z,1.87
2022-09-07T04:16:49.691Z,2.03
2022-09-07T04:19:17.947Z,1.70
2022-09-07T04:21:47.585Z,1.97
2022-09-07T04:24:19.102Z,1.60
2022-09-07T04:26:47.361Z,1.93
2022-09-07T04:29:15.572Z,1.80
2022-09-07T04:31:43.919Z,1.73
2022-09-07T04:34:13.178Z,1.90
2022-09-07T04:36:41.409Z,2.07
2022-09-07T04:39:10.383Z,1.73
2022-09-07T04:41:40.800Z,2.23
2022-09-07T04:44:12.571Z,1.90
2022-09-07T04:46:43.434Z,1.20
2022-09-07T04:49:12.577Z,2.10
2022-09-07T04:51:42.714Z,2.60
2022-09-07T04:54:12.795Z,1.90
2022-09-07T04:56:43.100Z,1.40
2022-09-07T04:59:11.356Z,1.60
2022-09-07T05:01:39.790Z,1.43
2022-09-07T05:04:08.079Z,1.10
2022-09-07T05:06:36.433Z,1.40
2022-09-07T05:09:04.686Z,1.60
2022-09-07T05:11:33.014Z,1.57
2022-09-07T05:14:04.920Z,1.40
2022-09-07T05:16:33.807Z,1.80
2022-09-07T05:19:03.925Z,1.73
2022-09-07T05:21:34.578Z,1.77
2022-09-07T05:24:03.260Z,1.93
2022-09-07T05:26:33.403Z,1.80
2022-09-07T05:31:52.692Z,1.53
2022-09-07T05:36:56.743Z,1.13
2022-09-07T05:39:24.937Z,1.60
2022-09-07T05:41:54.200Z,2.50
2022-09-07T05:47:12.274Z,1.77
2022-09-07T05:49:40.562Z,1.63
2022-09-07T05:52:08.699Z,5.33
2022-09-07T05:54:36.924Z,3.20
2022-09-07T05:57:05.338Z,4.10
2022-09-07T05:59:35.047Z,4.47
2022-09-07T06:02:03.257Z,4.83
2022-09-07T06:04:31.592Z,3.63
2022-09-07T06:07:20.650Z,3.23
2022-09-07T06:12:36.656Z,3.80
2022-09-07T06:15:07.536Z,4.00
2022-09-07T06:17:35.678Z,3.83
2022-09-07T06:20:04.574Z,3.67
2022-09-07T06:22:32.675Z,3.70
2022-09-07T06:25:01.098Z,3.67
2022-09-07T06:27:29.938Z,3.50
2022-09-07T06:29:58.509Z,2.40
2022-09-07T06:32:44.202Z,3.13
2022-09-07T06:35:13.648Z,1.57
2022-09-07T06:37:42.722Z,2.13
2022-09-07T06:40:12.557Z,1.50
2022-09-07T06:42:40.764Z,1.83
2022-09-07T06:45:11.269Z,1.90
2022-09-07T06:47:41.492Z,1.73
2022-09-07T06:50:11.197Z,1.80
2022-09-07T06:55:29.230Z,1.73
2022-09-07T06:57:57.502Z,1.57
2022-09-07T07:00:26.095Z,1.53
2022-09-07T07:02:55.772Z,1.43
2022-09-07T07:05:24.014Z,1.77
2022-09-07T07:07:52.354Z,2.40
2022-09-07T07:10:24.597Z,1.57
2022-09-07T07:12:57.396Z,2.10
2022-09-07T07:15:28.260Z,1.77
2022-09-07T07:18:05.484Z,1.80
2022-09-07T07:20:46.457Z,1.90
2022-09-07T07:23:15.577Z,1.60
2022-09-07T07:25:43.734Z,1.43
2022-09-07T07:31:04.859Z,1.30
2022-09-07T07:33:38.703Z,1.20
2022-09-07T07:36:11.558Z,2.10
2022-09-07T07:44:20.891Z,1.33
2022-09-07T07:46:50.333Z,1.40
2022-09-07T07:49:20.506Z,1.57
2022-09-07T07:54:37.910Z,1.47
2022-09-07T07:57:06.572Z,1.43
2022-09-07T07:59:34.814Z,1.50
2022-09-07T08:02:05.094Z,1.60
2022-09-07T08:04:35.643Z,1.37
2022-09-07T08:07:10.231Z,1.60
2022-09-07T08:09:40.804Z,1.60
2022-09-07T08:12:10.175Z,1.90
2022-09-07T08:14:40.942Z,2.07
2022-09-07T08:17:10.014Z,1.97
2022-09-07T08:19:39.682Z,2.33
2022-09-07T08:22:08.634Z,1.83
2022-09-07T08:24:36.971Z,1.90
2022-09-07T08:27:05.554Z,1.73
2022-09-07T08:29:35.490Z,1.60
2022-09-07T08:32:05.527Z,1.63
2022-09-07T08:34:33.684Z,1.40
2022-09-07T08:37:03.845Z,1.13
2022-09-07T08:39:32.059Z,1.60
2022-09-07T08:42:24.309Z,1.77
2022-09-07T08:44:57.306Z,1.73
2022-09-07T08:47:31.899Z,1.47
2022-09-07T08:50:04.204Z,1.43
2022-09-07T08:52:43.531Z,1.73
2022-09-07T08:55:15.821Z,1.70
2022-09-07T08:57:48.424Z,1.87
2022-09-07T09:00:18.611Z,1.67
2022-09-07T09:03:28.606Z,1.20
2022-09-07T09:05:39.279Z,1.90
2022-09-07T09:08:22.537Z,1.90
2022-09-07T09:10:56.726Z,1.83
2022-09-07T09:13:30.763Z,1.63
2022-09-07T09:16:05.810Z,1.73
2022-09-07T09:18:46.592Z,1.33
2022-09-07T09:21:16.566Z,1.60
2022-09-07T09:23:50.296Z,1.30
2022-09-07T09:26:22.818Z,1.10
2022-09-07T09:28:50.865Z,1.50
2022-09-07T09:31:20.358Z,0.97
2022-09-07T09:34:10.474Z,1.20
2022-09-07T09:36:43.495Z,1.70
2022-09-07T09:39:30.644Z,0.90
2022-09-07T09:42:01.224Z,1.57
2022-09-07T09:44:34.203Z,1.20
2022-09-07T09:49:53.589Z,1.37
2022-09-07T09:52:33.658Z,1.70
2022-09-07T10:04:02.889Z,1.13
2022-09-07T10:06:35.601Z,2.23
2022-09-07T10:09:03.810Z,1.40
2022-09-07T10:14:35.656Z,1.70
2022-09-07T10:17:12.612Z,1.50
2022-09-07T10:19:43.752Z,1.40
2022-09-07T10:22:23.430Z,1.70
2022-09-07T10:24:52.135Z,1.27
2022-09-07T10:27:28.293Z,1.97
2022-09-07T10:29:56.554Z,2.03
2022-09-07T10:32:28.289Z,1.67
2022-09-07T10:35:06.547Z,1.40
2022-09-07T10:37:42.321Z,1.70
2022-09-07T10:40:25.143Z,2.13
2022-09-07T10:46:56.370Z,1.83
2022-09-07T10:49:19.756Z,1.60
2022-09-07T10:51:59.505Z,1.80
2022-09-07T10:54:37.396Z,1.83
2022-09-07T10:57:28.130Z,1.93
2022-09-07T11:00:11.330Z,1.70
2022-09-07T11:05:39.747Z,1.87
2022-09-07T11:08:19.331Z,1.60
2022-09-07T11:10:53.550Z,1.30
2022-09-07T11:13:24.390Z,1.50
2022-09-07T11:15:56.546Z,1.80
2022-09-07T11:18:27.976Z,1.60
2022-09-07T11:20:58.944Z,1.23
2022-09-07T11:23:30.934Z,1.63
2022-09-07T11:26:03.504Z,1.73
2022-09-07T11:28:38.660Z,1.70
2022-09-07T11:31:18.832Z,1.50
2022-09-07T11:36:50.044Z,1.67
2022-09-07T11:39:21.316Z,1.67
2022-09-07T11:41:54.264Z,2.27
2022-09-07T11:44:27.260Z,1.73
2022-09-07T11:47:00.150Z,1.43
2022-09-07T11:49:28.736Z,1.20
2022-09-07T11:51:58.574Z,1.20
2022-09-07T11:54:33.171Z,1.63
2022-09-07T11:57:12.235Z,2.10
2022-09-07T11:59:49.805Z,1.70
2022-09-07T12:02:58.696Z,1.50
2022-09-07T12:05:41.612Z,1.60
2022-09-07T12:08:20.648Z,1.83
2022-09-07T12:11:09.404Z,1.90
2022-09-07T12:14:12.451Z,1.83
2022-09-07T12:16:56.364Z,2.47
2022-09-07T12:19:26.821Z,2.53
2022-09-07T12:21:59.567Z,1.60
2022-09-07T12:24:34.861Z,1.53
2022-09-07T12:27:03.405Z,1.50
2022-09-07T12:29:32.428Z,2.30
2022-09-07T12:32:53.649Z,2.07
2022-09-07T12:34:54.996Z,1.53
2022-09-07T12:37:44.254Z,1.40
2022-09-07T12:40:59.106Z,1.20
2022-09-07T12:43:35.905Z,2.07
2022-09-07T12:46:04.613Z,2.17
2022-09-07T12:48:43.623Z,1.50
2022-09-07T12:51:59.324Z,1.87
2022-09-07T12:54:11.343Z,1.37
2022-09-07T12:56:45.403Z,1.70
2022-09-07T12:59:42.267Z,1.80
2022-09-07T13:02:28.895Z,1.67
2022-09-07T13:05:06.283Z,1.50
2022-09-07T13:08:14.413Z,1.53
2022-09-07T13:10:43.519Z,1.40
2022-09-07T13:14:02.778Z,1.77
2022-09-07T13:16:30.716Z,2.13
2022-09-07T13:19:01.898Z,1.77
2022-09-07T13:21:39.426Z,1.90
2022-09-07T13:24:47.271Z,2.10
2022-09-07T13:27:29.995Z,2.30
2022-09-07T13:30:00.029Z,1.90
2022-09-07T13:35:20.042Z,1.80
2022-09-07T13:37:52.624Z,1.63
2022-09-07T13:40:26.516Z,2.20
2022-09-07T13:42:56.200Z,1.60
2022-09-07T13:45:47.562Z,1.83
2022-09-07T13:48:21.814Z,1.80
2022-09-07T13:50:56.215Z,2.60
2022-09-07T13:53:31.979Z,2.33
2022-09-07T13:56:23.453Z,2.53
2022-09-07T13:58:53.373Z,1.70
2022-09-07T14:01:23.241Z,2.10
2022-09-07T14:03:53.423Z,2.30
2022-09-07T14:06:31.285Z,2.30
2022-09-07T14:09:01.345Z,1.93
2022-09-07T14:11:40.207Z,1.80
2022-09-07T14:14:17.335Z,1.63
2022-09-07T14:16:50.200Z,2.10
2022-09-07T14:19:21.337Z,1.50
2022-09-07T14:21:56.716Z,2.10
2022-09-07T14:24:33.991Z,1.47
2022-09-07T14:27:04.218Z,1.53
2022-09-07T14:29:33.787Z,1.30
2022-09-07T14:32:03.493Z,1.67
2022-09-07T14:34:36.027Z,1.70
2022-09-07T14:37:07.433Z,1.80
2022-09-07T14:39:38.812Z,1.80
2022-09-07T14:42:10.851Z,1.80
2022-09-07T14:44:40.504Z,1.63
2022-09-07T14:47:13.210Z,1.43
2022-09-07T14:49:41.728Z,2.30
2022-09-07T14:52:17.497Z,2.27
2022-09-07T14:54:52.263Z,2.03
2022-09-07T14:57:32.186Z,1.90
2022-09-07T15:00:19.768Z,2.07
2022-09-07T15:02:48.112Z,2.60
2022-09-07T15:05:26.249Z,2.53
2022-09-07T15:07:56.742Z,2.60
2022-09-07T15:10:37.194Z,1.73
2022-09-07T15:13:23.270Z,1.97
2022-09-07T15:15:59.144Z,1.87
2022-09-07T15:18:54.620Z,2.17
2022-09-07T15:21:24.195Z,2.37
2022-09-07T15:23:53.340Z,2.10
2022-09-07T15:29:12.046Z,2.17
2022-09-07T15:31:42.615Z,1.60
2022-09-07T15:34:14.411Z,2.07
2022-09-07T15:36:43.928Z,1.70
2022-09-07T15:39:17.163Z,1.90
2022-09-07T15:41:45.642Z,1.63
2022-09-07T15:44:15.957Z,2.03
2022-09-07T15:47:43.259Z,1.77
2022-09-07T15:49:32.612Z,1.93
2022-09-07T15:52:07.898Z,1.47
2022-09-07T15:54:39.607Z,1.73
2022-09-07T15:59:57.453Z,1.60
2022-09-07T16:05:13.795Z,1.80
2022-09-07T16:10:31.649Z,1.83
2022-09-07T16:13:01.559Z,1.43
2022-09-07T16:15:32.358Z,1.67
2022-09-07T16:18:00.493Z,1.70
2022-09-07T16:20:31.885Z,1.60
2022-09-07T16:23:17.100Z,1.90
2022-09-07T16:25:57.456Z,1.73
2022-09-07T16:28:25.729Z,1.93
2022-09-07T16:30:56.312Z,1.80
2022-09-07T16:33:32.801Z,1.77
2022-09-07T16:36:06.980Z,2.07
2022-09-07T16:38:50.878Z,1.50
2022-09-07T16:41:20.949Z,1.70
2022-09-07T16:43:48.983Z,1.50
2022-09-07T16:46:19.597Z,1.80
2022-09-07T16:48:47.781Z,1.70
2022-09-07T16:51:19.437Z,1.80
2022-09-07T16:53:48.897Z,2.47
2022-09-07T16:56:19.049Z,3.07
2022-09-07T16:58:48.298Z,2.33
2022-09-07T17:01:19.742Z,1.90
2022-09-07T17:03:49.730Z,1.80
2022-09-07T17:06:19.202Z,2.27
2022-09-07T17:08:47.542Z,2.20
2022-09-07T17:11:17.227Z,1.83
2022-09-07T17:13:45.325Z,2.13
2022-09-07T17:16:14.684Z,2.67
2022-09-07T17:21:34.457Z,2.53
2022-09-07T17:24:04.230Z,1.80
2022-09-07T17:26:32.850Z,2.00
2022-09-07T17:29:01.664Z,2.50
2022-09-07T17:34:20.829Z,2.73
2022-09-07T17:36:49.081Z,2.23
2022-09-07T17:39:19.824Z,2.73
2022-09-07T17:41:48.583Z,2.70
2022-09-07T17:44:16.921Z,2.60
2022-09-07T17:46:44.869Z,8.63
2022-09-07T17:49:14.541Z,4.03
2022-09-07T17:51:44.208Z,4.17
2022-09-07T17:54:14.227Z,3.40
2022-09-07T17:56:42.917Z,2.40
2022-09-07T18:01:59.041Z,3.20
2022-09-07T18:04:28.424Z,3.13
2022-09-07T18:06:58.332Z,3.10
2022-09-07T18:09:26.410Z,3.00
2022-09-07T18:11:54.403Z,2.93
2022-09-07T18:14:22.465Z,2.87
2022-09-07T18:16:51.064Z,3.80
2022-09-07T18:19:19.908Z,2.93
2022-09-07T18:21:48.775Z,3.80
2022-09-07T18:24:19.897Z,3.20
2022-09-07T18:26:51.259Z,3.23
2022-09-07T18:29:31.322Z,3.17
2022-09-07T18:32:02.415Z,4.80
2022-09-07T18:34:31.792Z,5.17
2022-09-07T18:37:00.331Z,8.70
2022-09-07T18:39:30.021Z,7.83
2022-09-07T18:41:58.414Z,7.57
2022-09-07T18:47:21.678Z,3.67
2022-09-07T18:49:52.068Z,3.30
2022-09-07T18:55:11.834Z,6.70
2022-09-07T18:57:39.918Z,6.30
2022-09-07T19:00:10.220Z,4.17
2022-09-07T19:02:38.412Z,4.30
2022-09-07T19:07:55.141Z,4.80
2022-09-07T19:10:24.687Z,5.57
2022-09-07T19:12:52.822Z,8.30
2022-09-07T19:15:21.549Z,8.10
2022-09-07T19:17:49.663Z,5.30
2022-09-07T19:20:17.918Z,5.53
2022-09-07T19:22:45.979Z,5.60
2022-09-07T19:25:13.892Z,8.40
2022-09-07T19:27:43.349Z,7.53
2022-09-07T19:30:12.234Z,11.50
2022-09-07T19:32:40.437Z,10.47
2022-09-07T19:35:10.951Z,7.33
2022-09-07T19:37:38.954Z,6.40
2022-09-07T19:40:14.754Z,7.20
2022-09-07T19:42:46.497Z,15.73
2022-09-07T19:45:15.536Z,9.60
2022-09-07T19:47:43.917Z,7.07
2022-09-07T19:50:11.970Z,10.00
2022-09-07T19:52:40.067Z,12.70
2022-09-07T19:55:09.178Z,5.93
2022-09-07T19:57:37.166Z,3.60
2022-09-07T20:00:08.179Z,3.17
2022-09-07T20:02:36.195Z,8.30
2022-09-07T20:05:04.569Z,8.63
2022-09-07T20:07:32.703Z,10.20
2022-09-07T20:10:00.705Z,5.53
2022-09-07T20:12:28.709Z,3.80
2022-09-07T20:14:56.761Z,3.87
2022-09-07T20:17:26.110Z,2.83
2022-09-07T20:19:54.434Z,3.43
2022-09-07T20:22:22.384Z,3.23
2022-09-07T20:24:50.459Z,4.80
2022-09-07T20:27:18.518Z,3.60
2022-09-07T20:29:46.568Z,3.90
2022-09-07T20:32:14.701Z,3.93
2022-09-07T20:34:44.166Z,3.90
2022-09-07T20:37:12.287Z,3.00
2022-09-07T20:39:43.021Z,3.23
2022-09-07T20:42:11.091Z,3.10
2022-09-07T20:44:39.210Z,3.47
2022-09-07T20:47:07.313Z,3.30
2022-09-07T20:49:35.354Z,4.20
2022-09-07T20:52:06.312Z,3.90
2022-09-07T20:54:34.435Z,4.37
2022-09-07T20:57:04.088Z,3.43
2022-09-07T20:59:32.754Z,3.80
2022-09-07T21:02:00.821Z,4.00
2022-09-07T21:04:28.977Z,3.77
2022-09-07T21:06:57.143Z,4.83
2022-09-07T21:09:26.713Z,4.17
2022-09-07T21:11:57.172Z,4.40
2022-09-07T21:14:25.455Z,3.90
2022-09-07T21:16:53.464Z,3.20
2022-09-07T21:19:21.676Z,3.50
2022-09-07T21:21:49.731Z,4.00
2022-09-07T21:24:19.332Z,3.77
2022-09-07T21:26:49.743Z,4.07
2022-09-07T21:29:19.124Z,4.03
2022-09-07T21:31:47.704Z,3.90
2022-09-07T21:34:16.612Z,3.90
2022-09-07T21:36:45.122Z,3.93
2022-09-07T21:39:14.616Z,3.60
2022-09-07T21:41:43.467Z,3.43
2022-09-07T21:44:14.199Z,3.30
2022-09-07T21:46:43.293Z,3.83
2022-09-07T21:49:11.527Z,3.70
2022-09-07T21:51:39.564Z,4.10
2022-09-07T21:54:08.148Z,3.00
2022-09-07T21:56:36.442Z,3.60
2022-09-07T21:59:06.343Z,2.90
2022-09-07T22:01:35.953Z,2.77
2022-09-07T22:04:06.917Z,3.03
2022-09-07T22:06:35.660Z,3.47
2022-09-07T22:09:05.038Z,3.00
2022-09-07T22:11:33.351Z,3.20
2022-09-07T22:14:02.789Z,2.70
2022-09-07T22:16:31.157Z,2.83
2022-09-07T22:19:00.654Z,2.47
2022-09-07T22:21:30.386Z,2.87
2022-09-07T22:23:59.967Z,3.60
2022-09-07T22:26:30.759Z,3.13
2022-09-07T22:28:59.579Z,2.90
2022-09-07T22:31:29.414Z,3.47
2022-09-07T22:33:58.599Z,2.20
2022-09-07T22:36:29.471Z,2.23
2022-09-07T22:38:58.808Z,2.63
2022-09-07T22:41:28.239Z,2.80
2022-09-07T22:43:56.524Z,2.63
2022-09-07T22:46:26.498Z,2.73
2022-09-07T22:48:54.941Z,2.67
2022-09-07T22:51:25.309Z,3.00
2022-09-07T22:53:55.532Z,3.27
2022-09-07T22:56:25.146Z,2.60
2022-09-07T22:58:55.287Z,3.30
2022-09-07T23:01:23.713Z,2.70
2022-09-07T23:03:52.482Z,3.07
2022-09-07T23:06:22.628Z,2.80
2022-09-07T23:08:50.759Z,3.57
2022-09-07T23:11:20.783Z,3.20
2022-09-07T23:13:51.952Z,2.93
2022-09-07T23:16:20.243Z,3.00
2022-09-07T23:18:49.011Z,2.93
2022-09-07T23:21:17.501Z,3.20
2022-09-07T23:23:50.367Z,3.27
2022-09-07T23:26:20.470Z,3.13
2022-09-07T23:28:52.752Z,3.27
2022-09-07T23:31:23.397Z,2.60
2022-09-07T23:33:51.987Z,3.30
2022-09-07T23:36:20.368Z,3.07
2022-09-07T23:38:49.005Z,3.20
2022-09-07T23:41:17.870Z,3.97
2022-09-07T23:43:48.395Z,3.10
2022-09-07T23:46:16.721Z,3.30
2022-09-07T23:48:45.288Z,3.40
2022-09-07T23:51:14.357Z,3.13
2022-09-07T23:53:42.791Z,3.50
2022-09-07T23:56:10.883Z,3.33
2022-09-07T23:58:38.929Z,3.00
